Watsonville, California
Current Conditions -  °F | °C
As of 9:01 AM on Saturday 25 Oct 2014 (Local Time) from KWVI Reporting Station
Light Rain Light Rain  
Wind Chill: 59°   Ceiling: 400
Heat Index: 59°   Visibility: 5mi
Dew Point: 58°   Wind: 3mph
Humidity: 96%   Direction: 40°NE
Pressure: 30.07"   Gusts: NA
Location:  36.91°N, 121.75°W
Report Text: KWVI 251601Z AUTO 04003KT 5SM -RA BR BKN004 BKN019 OVC041 15/14 A3007 RMK AO2 P0000 T01500144
Loading
Personal Weather Stations






























Interactive Weather Map
Tropical Storm Tracking
New forecast layout! Learn more

10-Day Weather Forecast

Advertisements
Track Severe Weather on mobile